createdAt,value
2022-08-22T00:00:19.678Z,95040.38
2022-08-22T00:02:57.558Z,95022.34
2022-08-22T00:02:58.076Z,95039.88
2022-08-22T00:03:16.108Z,95042.34
2022-08-22T00:05:32.364Z,95039.13
2022-08-22T00:07:58.930Z,95039.88
2022-08-22T00:10:25.921Z,95044.25
2022-08-22T00:12:52.314Z,95037.81
2022-08-22T00:15:41.820Z,95032.41
2022-08-22T00:18:05.577Z,95038.19
2022-08-22T00:20:32.126Z,95042.41
2022-08-22T00:22:58.472Z,95029.69
2022-08-22T00:25:25.998Z,95032.75
2022-08-22T00:27:52.572Z,95028.97
2022-08-22T00:30:18.924Z,95028.97
2022-08-22T00:32:45.300Z,95027.00
2022-08-22T00:35:11.646Z,95021.63
2022-08-22T00:37:37.999Z,95030.59
2022-08-22T00:40:04.410Z,95032.81
2022-08-22T00:42:31.901Z,95023.97
2022-08-22T00:44:58.664Z,95023.56
2022-08-22T00:47:25.105Z,95035.47
2022-08-22T00:49:51.445Z,95029.69
2022-08-22T00:52:17.793Z,95028.28
2022-08-22T00:54:44.167Z,95031.19
2022-08-22T00:57:10.522Z,95026.47
2022-08-22T00:59:36.868Z,95023.03
2022-08-22T01:02:03.211Z,95028.59
2022-08-22T01:04:29.571Z,95019.53
2022-08-22T01:06:55.931Z,95021.69
2022-08-22T01:09:22.283Z,95018.13
2022-08-22T01:11:48.642Z,95013.28
2022-08-22T01:14:14.996Z,95017.34
2022-08-22T01:16:41.352Z,95013.19
2022-08-22T01:19:07.696Z,95006.13
2022-08-22T01:21:34.085Z,95010.53
2022-08-22T01:24:00.450Z,95006.44
2022-08-22T01:26:27.667Z,95010.44
2022-08-22T01:28:54.950Z,95008.44
2022-08-22T01:31:21.602Z,95008.31
2022-08-22T01:33:47.957Z,94999.38
2022-08-22T01:36:14.298Z,94999.16
2022-08-22T01:38:40.647Z,94999.75
2022-08-22T01:41:07.013Z,95002.09
2022-08-22T01:44:00.227Z,94994.31
2022-08-22T01:46:23.112Z,94995.56
2022-08-22T01:48:49.459Z,95001.75
2022-08-22T01:51:15.823Z,94994.63
2022-08-22T01:53:42.163Z,94992.81
2022-08-22T01:56:08.519Z,94994.84
2022-08-22T01:58:34.879Z,94995.91
2022-08-22T02:01:01.232Z,94987.94
2022-08-22T02:03:27.594Z,94991.16
2022-08-22T02:05:53.942Z,94988.78
2022-08-22T02:08:20.290Z,94973.38
2022-08-22T02:10:46.644Z,94979.59
2022-08-22T02:13:13.075Z,94977.94
2022-08-22T02:15:39.428Z,94981.16
2022-08-22T02:18:05.764Z,94981.81
2022-08-22T02:20:32.108Z,94981.22
2022-08-22T02:22:58.461Z,94977.66
2022-08-22T02:25:24.813Z,94983.06
2022-08-22T02:27:51.169Z,94979.44
2022-08-22T02:30:17.521Z,94975.09
2022-08-22T02:32:43.869Z,94979.66
2022-08-22T02:35:10.219Z,94974.72
2022-08-22T02:37:36.585Z,94971.19
2022-08-22T02:40:02.971Z,94973.28
2022-08-22T02:42:29.371Z,94975.09
2022-08-22T02:44:55.715Z,94964.94
2022-08-22T02:47:23.514Z,94966.31
2022-08-22T02:49:49.863Z,94961.97
2022-08-22T02:52:18.042Z,94959.47
2022-08-22T02:54:44.381Z,94953.56
2022-08-22T02:57:14.290Z,94952.91
2022-08-22T02:59:40.925Z,94952.50
2022-08-22T03:02:07.263Z,94946.75
2022-08-22T03:04:33.611Z,94940.81
2022-08-22T03:06:59.961Z,94945.75
2022-08-22T03:09:26.313Z,94948.63
2022-08-22T03:11:52.654Z,94942.97
2022-08-22T03:14:19.010Z,94942.84
2022-08-22T03:16:45.440Z,94945.75
2022-08-22T03:19:14.879Z,94942.03
2022-08-22T03:21:45.329Z,94941.97
2022-08-22T03:24:11.675Z,94939.97
2022-08-22T03:26:38.034Z,94943.81
2022-08-22T03:29:04.391Z,94939.25
2022-08-22T03:31:30.744Z,94933.19
2022-08-22T03:33:57.089Z,94932.69
2022-08-22T03:36:23.434Z,94928.16
2022-08-22T03:38:49.790Z,94931.16
2022-08-22T03:41:16.156Z,94925.44
2022-08-22T03:43:42.547Z,94928.44
2022-08-22T03:46:08.894Z,94922.09
2022-08-22T03:48:35.247Z,94928.91
2022-08-22T03:51:02.573Z,94926.34
2022-08-22T03:53:28.917Z,94930.38
2022-08-22T03:55:55.274Z,94927.50
2022-08-22T03:58:27.414Z,94936.28
2022-08-22T04:00:55.965Z,94939.56
2022-08-22T04:03:23.162Z,94935.06
2022-08-22T04:05:49.511Z,94931.13
2022-08-22T04:08:25.605Z,94935.28
2022-08-22T04:10:52.585Z,94932.91
2022-08-22T04:13:18.930Z,94934.69
2022-08-22T04:15:51.092Z,94938.28
2022-08-22T04:18:17.441Z,94939.84
2022-08-22T04:20:44.810Z,94938.25
2022-08-22T04:23:11.169Z,94950.69
2022-08-22T04:25:37.586Z,94947.31
2022-08-22T04:28:03.931Z,94944.41
2022-08-22T04:30:30.283Z,94944.06
2022-08-22T04:32:56.626Z,94944.75
2022-08-22T04:35:22.974Z,94949.03
2022-08-22T04:37:49.324Z,94949.09
2022-08-22T04:40:15.777Z,94952.03
2022-08-22T04:42:42.212Z,94946.59
2022-08-22T04:45:08.682Z,94941.69
2022-08-22T04:47:35.039Z,94947.31
2022-08-22T04:50:01.397Z,94947.63
2022-08-22T04:52:29.530Z,94953.03
2022-08-22T04:54:56.099Z,94953.75
2022-08-22T04:57:22.450Z,94959.44
2022-08-22T04:59:48.815Z,94965.53
2022-08-22T05:02:17.531Z,94963.38
2022-08-22T05:04:43.876Z,94971.88
2022-08-22T05:07:10.232Z,94971.94
2022-08-22T05:09:36.569Z,94976.72
2022-08-22T05:12:02.926Z,94983.63
2022-08-22T05:14:29.264Z,94987.22
2022-08-22T05:16:55.605Z,94994.31
2022-08-22T05:19:29.667Z,95001.75
2022-08-22T05:21:58.215Z,95002.09
2022-08-22T05:24:28.066Z,95002.47
2022-08-22T05:26:54.602Z,95003.22
2022-08-22T05:29:20.953Z,95012.25
2022-08-22T05:31:47.305Z,95010.53
2022-08-22T05:34:13.641Z,95007.63
2022-08-22T05:36:40.003Z,95007.91
2022-08-22T05:39:06.354Z,95012.69
2022-08-22T05:41:32.712Z,95003.00
2022-08-22T05:43:59.068Z,95011.88
2022-08-22T05:46:26.979Z,95010.44
2022-08-22T05:48:53.661Z,95010.97
2022-08-22T05:51:20.011Z,95008.41
2022-08-22T05:53:46.357Z,95012.41
2022-08-22T05:56:12.700Z,95014.47
2022-08-22T05:58:39.047Z,95010.13
2022-08-22T06:01:05.402Z,95008.13
2022-08-22T06:03:31.750Z,95007.28
2022-08-22T06:05:58.088Z,95014.16
2022-08-22T06:08:24.431Z,95012.28
2022-08-22T06:10:50.833Z,95009.22
2022-08-22T06:13:17.174Z,95005.63
2022-08-22T06:15:50.709Z,95004.69
2022-08-22T06:18:17.057Z,95007.25
2022-08-22T06:20:43.421Z,95009.50
2022-08-22T06:23:09.764Z,95010.34
2022-08-22T06:25:36.119Z,95013.44
2022-08-22T06:28:02.471Z,95011.88
2022-08-22T06:30:28.819Z,95008.84
2022-08-22T06:32:59.992Z,95015.59
2022-08-22T06:35:26.855Z,95014.63
2022-08-22T06:37:53.239Z,95022.47
2022-08-22T06:40:19.708Z,95016.28
2022-08-22T06:42:46.117Z,95025.56
2022-08-22T06:45:12.474Z,95026.94
2022-08-22T06:47:38.912Z,95033.28
2022-08-22T06:50:05.779Z,95029.41
2022-08-22T06:52:32.134Z,95030.41
2022-08-22T06:54:58.488Z,95030.31
2022-08-22T06:57:25.165Z,95032.13
2022-08-22T06:59:51.521Z,95031.25
2022-08-22T07:02:17.870Z,95029.75
2022-08-22T07:04:44.901Z,95028.47
2022-08-22T07:07:11.246Z,95024.19
2022-08-22T07:09:37.603Z,95022.91
2022-08-22T07:12:03.946Z,95022.91
2022-08-22T07:14:30.308Z,95032.13
2022-08-22T07:16:56.656Z,95036.84
2022-08-22T07:19:23.006Z,95037.50
2022-08-22T07:21:49.345Z,95035.91
2022-08-22T07:24:15.693Z,95028.38
2022-08-22T07:26:42.062Z,95038.28
2022-08-22T07:29:11.400Z,95035.56
2022-08-22T07:31:37.941Z,95036.19
2022-08-22T07:34:04.745Z,95035.22
2022-08-22T07:36:32.011Z,95037.38
2022-08-22T07:38:58.516Z,95034.25
2022-08-22T07:41:24.876Z,95035.19
2022-08-22T07:43:51.220Z,95034.78
2022-08-22T07:46:17.553Z,95039.88
2022-08-22T07:48:59.496Z,95033.41
2022-08-22T07:51:30.287Z,95037.63
2022-08-22T07:54:00.628Z,95036.53
2022-08-22T07:56:27.319Z,95031.13
2022-08-22T07:58:53.728Z,95028.81
2022-08-22T08:01:20.137Z,95032.81
2022-08-22T08:03:46.580Z,95018.84
2022-08-22T08:06:12.930Z,95028.38
2022-08-22T08:08:39.295Z,95029.91
2022-08-22T08:11:05.655Z,95035.66
2022-08-22T08:13:32.021Z,95023.06
2022-08-22T08:15:58.385Z,95032.31
2022-08-22T08:18:24.732Z,95032.47
2022-08-22T08:20:51.166Z,95026.88
2022-08-22T08:23:17.518Z,95023.13
2022-08-22T08:25:53.560Z,95033.84
2022-08-22T08:28:20.260Z,95032.47
2022-08-22T08:30:47.935Z,95039.19
2022-08-22T08:33:26.359Z,95032.56
2022-08-22T08:36:03.577Z,95030.97
2022-08-22T08:38:30.369Z,95029.19
2022-08-22T08:40:56.714Z,95029.91
2022-08-22T08:43:23.102Z,95028.91
2022-08-22T08:45:49.448Z,95035.44
2022-08-22T08:48:15.795Z,95035.88
2022-08-22T08:50:43.217Z,95035.19
2022-08-22T08:53:09.706Z,95021.75
2022-08-22T08:55:36.944Z,95034.75
2022-08-22T08:58:06.635Z,95033.41
2022-08-22T09:00:33.242Z,95023.03
2022-08-22T09:02:59.769Z,95024.47
2022-08-22T09:05:32.786Z,95022.28
2022-08-22T09:07:59.262Z,95026.47
2022-08-22T09:10:27.434Z,95007.00
2022-08-22T09:12:56.488Z,95017.13
2022-08-22T09:15:39.005Z,95019.81
2022-08-22T09:18:05.401Z,95017.84
2022-08-22T09:20:32.879Z,95020.97
2022-08-22T09:22:59.237Z,95018.72
2022-08-22T09:25:25.599Z,95013.25
2022-08-22T09:27:51.964Z,95009.13
2022-08-22T09:30:18.297Z,94998.94
2022-08-22T09:32:54.165Z,94991.88
2022-08-22T09:35:20.524Z,94991.78
2022-08-22T09:37:48.916Z,94991.00
2022-08-22T09:40:21.296Z,94989.50
2022-08-22T09:42:51.187Z,94994.72
2022-08-22T09:45:18.203Z,94999.16
2022-08-22T09:47:44.572Z,95003.09
2022-08-22T09:50:11.075Z,94997.94
2022-08-22T09:52:37.451Z,94997.28
2022-08-22T09:55:03.828Z,94999.16
2022-08-22T09:57:34.512Z,95011.84
2022-08-22T10:00:00.891Z,95005.84
2022-08-22T10:02:28.500Z,95000.25
2022-08-22T10:04:56.417Z,95000.25
2022-08-22T10:07:24.576Z,94997.34
2022-08-22T10:09:54.842Z,95001.84
2022-08-22T10:12:24.845Z,94995.50
2022-08-22T10:14:51.376Z,95002.56
2022-08-22T10:17:21.535Z,95000.88
2022-08-22T10:19:48.487Z,95000.97
2022-08-22T10:22:15.127Z,95008.72
2022-08-22T10:24:43.676Z,95008.22
2022-08-22T10:27:10.589Z,94998.78
2022-08-22T10:29:36.937Z,94995.59
2022-08-22T10:32:07.701Z,94995.00
2022-08-22T10:34:41.028Z,95001.78
2022-08-22T10:37:08.647Z,94990.88
2022-08-22T10:39:36.705Z,94988.94
2022-08-22T10:42:04.157Z,94993.59
2022-08-22T10:44:30.507Z,94989.38
2022-08-22T10:46:57.770Z,94986.50
2022-08-22T10:49:28.288Z,94974.88
2022-08-22T10:51:55.309Z,94971.72
2022-08-22T10:54:24.666Z,94975.38
2022-08-22T10:56:51.030Z,94983.94
2022-08-22T10:59:18.963Z,94969.78
2022-08-22T11:01:49.208Z,94981.22
2022-08-22T11:04:15.595Z,94973.75
2022-08-22T11:06:41.938Z,94967.59
2022-08-22T11:09:11.122Z,94976.63
2022-08-22T11:11:37.622Z,94985.31
2022-08-22T11:14:04.330Z,94979.97
2022-08-22T11:16:30.687Z,94977.38
2022-08-22T11:19:14.962Z,94975.13
2022-08-22T11:21:42.054Z,94975.53
2022-08-22T11:24:08.402Z,94968.25
2022-08-22T11:26:47.501Z,94963.72
2022-08-22T11:29:14.556Z,94978.28
2022-08-22T11:31:51.307Z,94975.94
2022-08-22T11:34:20.580Z,94964.56
2022-08-22T11:36:47.032Z,94965.53
2022-08-22T11:39:18.685Z,94958.09
2022-08-22T11:41:45.371Z,94952.97
2022-08-22T11:44:18.698Z,94962.22
2022-08-22T11:46:45.088Z,94952.97
2022-08-22T11:49:11.426Z,94957.06
2022-08-22T11:51:37.771Z,94953.53
2022-08-22T11:54:05.298Z,94954.97
2022-08-22T11:56:31.684Z,94950.38
2022-08-22T11:58:58.037Z,94949.88
2022-08-22T12:01:24.383Z,94944.28
2022-08-22T12:03:55.737Z,94949.50
2022-08-22T12:06:25.093Z,94948.56
2022-08-22T12:08:51.479Z,94942.97
2022-08-22T12:11:17.827Z,94944.56
2022-08-22T12:13:44.194Z,94939.59
2022-08-22T12:16:10.562Z,94944.47
2022-08-22T12:18:37.381Z,94939.59
2022-08-22T12:21:03.766Z,94935.31
2022-08-22T12:23:43.297Z,94935.50
2022-08-22T12:26:15.439Z,94938.97
2022-08-22T12:28:41.829Z,94936.41
2022-08-22T12:31:08.738Z,94934.81
2022-08-22T12:33:35.743Z,94945.34
2022-08-22T12:36:02.090Z,94938.25
2022-08-22T12:38:30.668Z,94937.84
2022-08-22T12:40:58.334Z,94936.41
2022-08-22T12:43:24.687Z,94932.84
2022-08-22T12:45:51.086Z,94927.47
2022-08-22T12:48:17.465Z,94919.28
2022-08-22T12:50:43.839Z,94922.63
2022-08-22T12:53:11.086Z,94928.44
2022-08-22T12:55:38.916Z,94926.28
2022-08-22T12:58:05.277Z,94923.16
2022-08-22T13:00:31.704Z,94912.09
2022-08-22T13:02:58.306Z,94913.56
2022-08-22T13:05:24.862Z,94910.50
2022-08-22T13:07:52.696Z,94910.56
2022-08-22T13:10:19.542Z,94912.59
2022-08-22T13:12:45.898Z,94913.06
2022-08-22T13:15:13.468Z,94906.03
2022-08-22T13:17:39.867Z,94906.97
2022-08-22T13:20:08.114Z,94902.19
2022-08-22T13:22:34.516Z,94906.81
2022-08-22T13:25:01.095Z,94904.50
2022-08-22T13:27:31.200Z,94907.94
2022-08-22T13:29:57.577Z,94901.78
2022-08-22T13:32:26.354Z,94906.34
2022-08-22T13:34:54.127Z,94904.31
2022-08-22T13:37:24.660Z,94904.56
2022-08-22T13:39:52.684Z,94895.53
2022-08-22T13:42:27.755Z,94901.38
2022-08-22T13:44:57.397Z,94889.28
2022-08-22T13:47:24.062Z,94884.00
2022-08-22T13:49:50.935Z,94894.31
2022-08-22T13:52:29.744Z,94892.16
2022-08-22T13:54:56.430Z,94892.53
2022-08-22T13:57:24.612Z,94892.16
2022-08-22T13:59:54.781Z,94891.19
2022-08-22T14:02:24.114Z,94884.00
2022-08-22T14:04:57.401Z,94880.69
2022-08-22T14:07:25.623Z,94879.91
2022-08-22T14:09:54.271Z,94880.88
2022-08-22T14:12:21.041Z,94883.41
2022-08-22T14:14:48.851Z,94879.59
2022-08-22T14:17:18.771Z,94873.25
2022-08-22T14:19:59.093Z,94869.81
2022-08-22T14:22:32.572Z,94877.34
2022-08-22T14:25:01.633Z,94872.53
2022-08-22T14:27:28.133Z,94874.13
2022-08-22T14:29:54.497Z,94878.94
2022-08-22T14:32:23.303Z,94872.28
2022-08-22T14:34:52.279Z,94878.47
2022-08-22T14:37:18.773Z,94874.63
2022-08-22T14:39:45.139Z,94879.13
2022-08-22T14:42:13.216Z,94876.22
2022-08-22T14:44:39.793Z,94886.31
2022-08-22T14:47:32.228Z,94887.94
2022-08-22T14:49:52.465Z,94875.50
2022-08-22T14:52:19.455Z,94876.53
2022-08-22T14:54:46.411Z,94871.19
2022-08-22T14:57:20.206Z,94872.38
2022-08-22T14:59:50.228Z,94878.72
2022-08-22T15:02:16.823Z,94876.88
2022-08-22T15:04:43.899Z,94873.56
2022-08-22T15:07:10.249Z,94869.75
2022-08-22T15:09:36.613Z,94867.25
2022-08-22T15:12:06.787Z,94865.63
2022-08-22T15:14:36.868Z,94865.41
2022-08-22T15:17:03.221Z,94865.25
2022-08-22T15:19:31.958Z,94865.81
2022-08-22T15:21:58.309Z,94870.13
2022-08-22T15:24:24.655Z,94863.31
2022-08-22T15:26:53.065Z,94859.63
2022-08-22T15:29:21.880Z,94860.53
2022-08-22T15:31:49.810Z,94860.75
2022-08-22T15:34:17.999Z,94866.94
2022-08-22T15:36:44.554Z,94868.94
2022-08-22T15:39:11.098Z,94859.81
2022-08-22T15:41:40.127Z,94865.81
2022-08-22T15:44:06.905Z,94859.06
2022-08-22T15:46:33.255Z,94852.66
2022-08-22T15:48:59.613Z,94847.84
2022-08-22T15:51:25.971Z,94856.03
2022-08-22T15:53:52.317Z,94853.31
2022-08-22T15:56:18.687Z,94850.88
2022-08-22T15:58:48.137Z,94853.38
2022-08-22T16:01:20.030Z,94856.69
2022-08-22T16:03:47.049Z,94855.56
2022-08-22T16:06:13.399Z,94860.13
2022-08-22T16:08:39.744Z,94858.59
2022-08-22T16:11:06.103Z,94854.25
2022-08-22T16:13:32.452Z,94861.63
2022-08-22T16:15:58.810Z,94863.50
2022-08-22T16:18:25.164Z,94862.84
2022-08-22T16:20:51.511Z,94857.41
2022-08-22T16:23:17.854Z,94859.41
2022-08-22T16:25:44.220Z,94858.84
2022-08-22T16:28:10.576Z,94862.91
2022-08-22T16:30:36.953Z,94852.13
2022-08-22T16:33:03.320Z,94858.28
2022-08-22T16:35:29.716Z,94855.69
2022-08-22T16:37:56.118Z,94853.97
2022-08-22T16:40:22.542Z,94858.59
2022-08-22T16:42:48.941Z,94855.88
2022-08-22T16:45:15.293Z,94857.16
2022-08-22T16:47:41.710Z,94854.97
2022-08-22T16:50:08.126Z,94849.06
2022-08-22T16:52:34.483Z,94859.41
2022-08-22T16:55:00.836Z,94861.00
2022-08-22T16:57:27.173Z,94849.28
2022-08-22T16:59:53.528Z,94868.19
2022-08-22T17:02:19.878Z,94858.59
2022-08-22T17:04:46.224Z,94868.38
2022-08-22T17:07:12.629Z,94859.47
2022-08-22T17:09:38.978Z,94866.28
2022-08-22T17:12:05.321Z,94866.47
2022-08-22T17:14:31.666Z,94869.50
2022-08-22T17:16:58.031Z,94867.34
2022-08-22T17:19:24.372Z,94872.06
2022-08-22T17:21:53.629Z,94874.78
2022-08-22T17:24:34.065Z,94882.72
2022-08-22T17:27:00.701Z,94872.16
2022-08-22T17:29:27.053Z,94873.91
2022-08-22T17:31:53.407Z,94878.72
2022-08-22T17:34:19.745Z,94882.72
2022-08-22T17:36:46.090Z,94879.69
2022-08-22T17:39:12.446Z,94880.50
2022-08-22T17:41:38.788Z,94881.69
2022-08-22T17:44:05.135Z,94890.50
2022-08-22T17:46:31.489Z,94885.19
2022-08-22T17:48:57.875Z,94886.09
2022-08-22T17:51:28.313Z,94889.28
2022-08-22T17:53:55.050Z,94888.34
2022-08-22T17:56:21.403Z,94893.84
2022-08-22T17:58:47.741Z,94900.03
2022-08-22T18:01:14.109Z,94894.75
2022-08-22T18:03:40.487Z,94900.03
2022-08-22T18:06:06.835Z,94897.06
2022-08-22T18:11:19.518Z,94901.22
2022-08-22T18:13:45.872Z,94909.56
2022-08-22T18:16:12.263Z,94912.69
2022-08-22T18:18:38.611Z,94911.00
2022-08-22T18:21:04.949Z,94913.66
2022-08-22T18:23:36.239Z,94918.22
2022-08-22T18:26:06.414Z,94921.09
2022-08-22T18:28:32.770Z,94919.00
2022-08-22T18:30:59.125Z,94916.63
2022-08-22T18:33:25.470Z,94919.59
2022-08-22T18:35:53.722Z,94921.03
2022-08-22T18:38:20.769Z,94919.66
2022-08-22T18:40:50.345Z,94919.91
2022-08-22T18:43:16.803Z,94924.53
2022-08-22T18:45:43.804Z,94922.97
2022-08-22T18:48:10.674Z,94924.41
2022-08-22T18:50:37.044Z,94921.28
2022-08-22T18:53:03.395Z,94929.59
2022-08-22T18:55:29.734Z,94924.94
2022-08-22T18:57:56.090Z,94931.59
2022-08-22T19:00:22.434Z,94931.56
2022-08-22T19:02:55.669Z,94927.94
2022-08-22T19:05:22.572Z,94928.25
2022-08-22T19:07:48.921Z,94932.81
2022-08-22T19:10:15.291Z,94937.63
2022-08-22T19:12:41.651Z,94941.31
2022-08-22T19:15:08.003Z,94940.66
2022-08-22T19:17:34.384Z,94944.03
2022-08-22T19:20:00.731Z,94941.06
2022-08-22T19:22:27.080Z,94941.97
2022-08-22T19:24:53.426Z,94953.50
2022-08-22T19:27:19.770Z,94956.69
2022-08-22T19:29:46.178Z,94955.31
2022-08-22T19:32:12.726Z,94958.47
2022-08-22T19:34:39.628Z,94957.34
2022-08-22T19:37:05.975Z,94951.66
2022-08-22T19:39:35.855Z,94955.28
2022-08-22T19:42:02.294Z,94951.47
2022-08-22T19:44:28.635Z,94954.22
2022-08-22T19:46:54.986Z,94956.88
2022-08-22T19:49:21.379Z,94956.69
2022-08-22T19:51:47.723Z,94957.28
2022-08-22T19:54:16.663Z,94957.16
2022-08-22T19:56:43.312Z,94958.78
2022-08-22T19:59:09.692Z,94964.69
2022-08-22T20:01:36.118Z,94960.09
2022-08-22T20:04:02.514Z,94961.75
2022-08-22T20:06:43.574Z,94961.34
2022-08-22T20:09:10.595Z,94959.19
2022-08-22T20:11:36.985Z,94966.47
2022-08-22T20:14:03.325Z,94964.59
2022-08-22T20:16:29.695Z,94957.69
2022-08-22T20:19:06.523Z,94964.00
2022-08-22T20:21:38.739Z,94965.50
2022-08-22T20:24:05.612Z,94956.09
2022-08-22T20:26:31.973Z,94964.88
2022-08-22T20:28:58.378Z,94967.94
2022-08-22T20:31:24.727Z,94963.16
2022-08-22T20:33:51.075Z,94965.50
2022-08-22T20:36:27.952Z,94971.75
2022-08-22T20:38:56.027Z,94966.31
2022-08-22T20:41:22.689Z,94965.53
2022-08-22T20:43:49.132Z,94964.72
2022-08-22T20:46:15.784Z,94970.34
2022-08-22T20:48:42.166Z,94969.44
2022-08-22T20:51:08.507Z,94967.94
2022-08-22T20:53:34.854Z,94975.19
2022-08-22T20:56:01.215Z,94970.34
2022-08-22T20:58:27.593Z,94976.97
2022-08-22T21:00:53.982Z,94972.34
2022-08-22T21:03:20.366Z,94972.34
2022-08-22T21:05:46.716Z,94974.00
2022-08-22T21:08:13.100Z,94968.97
2022-08-22T21:10:39.443Z,94969.44
2022-08-22T21:13:05.794Z,94972.66
2022-08-22T21:15:32.178Z,94974.34
2022-08-22T21:17:58.695Z,94972.03
2022-08-22T21:20:25.147Z,94975.78
2022-08-22T21:22:51.502Z,94975.19
2022-08-22T21:25:17.840Z,94982.84
2022-08-22T21:27:44.275Z,94981.72
2022-08-22T21:30:10.631Z,94978.25
2022-08-22T21:32:36.976Z,94978.81
2022-08-22T21:35:03.321Z,94979.00
2022-08-22T21:37:29.663Z,94976.34
2022-08-22T21:39:56.165Z,94980.19
2022-08-22T21:42:22.540Z,94979.78
2022-08-22T21:44:48.946Z,94973.72
2022-08-22T21:47:15.291Z,94973.00
2022-08-22T21:49:43.541Z,94980.81
2022-08-22T21:52:09.901Z,94972.03
2022-08-22T21:54:36.249Z,94973.22
2022-08-22T21:57:02.622Z,94974.38
2022-08-22T21:59:51.802Z,94973.88
2022-08-22T22:02:15.300Z,94975.19
2022-08-22T22:04:41.662Z,94970.91
2022-08-22T22:07:08.024Z,94974.66
2022-08-22T22:09:34.416Z,94974.13
2022-08-22T22:12:00.763Z,94978.06
2022-08-22T22:14:27.142Z,94981.72
2022-08-22T22:16:53.478Z,94979.16
2022-08-22T22:19:19.827Z,94986.38
2022-08-22T22:21:46.171Z,94987.63
2022-08-22T22:24:12.514Z,94985.75
2022-08-22T22:26:38.879Z,94998.47
2022-08-22T22:29:05.231Z,94990.84
2022-08-22T22:31:31.619Z,95004.78
2022-08-22T22:34:00.249Z,95007.19
2022-08-22T22:36:26.600Z,95008.66
2022-08-22T22:38:52.950Z,95001.75
2022-08-22T22:41:19.304Z,95008.16
2022-08-22T22:43:45.646Z,95008.25
2022-08-22T22:46:12.002Z,95012.16
2022-08-22T22:48:38.358Z,95010.63
2022-08-22T22:51:04.714Z,95020.34
2022-08-22T22:53:38.297Z,95017.94
2022-08-22T22:56:06.602Z,95015.06
2022-08-22T22:58:32.976Z,95022.59
2022-08-22T23:00:59.357Z,95032.28
2022-08-22T23:03:25.697Z,95024.84
2022-08-22T23:05:52.055Z,95030.13
2022-08-22T23:08:18.394Z,95027.38
2022-08-22T23:10:44.730Z,95026.53
2022-08-22T23:13:11.070Z,95022.84
2022-08-22T23:15:37.439Z,95032.53
2022-08-22T23:18:03.819Z,95028.69
2022-08-22T23:20:30.171Z,95029.97
2022-08-22T23:22:56.517Z,95034.91
2022-08-22T23:25:22.866Z,95034.13
2022-08-22T23:27:52.491Z,95028.34
2022-08-22T23:30:19.058Z,95028.47
2022-08-22T23:32:45.398Z,95025.63
2022-08-22T23:35:11.756Z,95025.78
2022-08-22T23:37:38.138Z,95027.56
2022-08-22T23:40:04.542Z,95027.25
2022-08-22T23:42:30.914Z,95029.75
2022-08-22T23:44:57.278Z,95027.34
2022-08-22T23:47:23.628Z,95028.34
2022-08-22T23:49:50.140Z,95027.78
2022-08-22T23:52:16.515Z,95024.53
2022-08-22T23:54:42.878Z,95023.22
2022-08-22T23:57:11.899Z,95028.84
2022-08-22T23:59:38.857Z,95024.41
